Time;durP1;ratioP1;P1;durP2;ratioP2;P2;SDS_P1;SDS_P2;PMS_P1;PMS_P2;Temp;Humidity;BMP_temperature;BMP_pressure;BME280_temperature;BME280_humidity;BME280_pressure;Samples;Min_cycle;Max_cycle;Signal;HPM_P1;HPM_P2
2023/12/22 00:02:25;;;;;;;3.95;0.70;;;6.60;99.90;;;;;;6277143;22;20094;-86
2023/12/22 00:04:52;;;;;;;10.60;1.48;;;6.60;99.90;;;;;;6251901;22;20362;-83
2023/12/22 00:07:22;;;;;;;6.90;1.45;;;6.60;99.90;;;;;;6251573;22;20015;-85
2023/12/22 00:09:49;;;;;;;7.45;1.10;;;6.60;99.90;;;;;;6277027;22;20434;-85
2023/12/22 00:12:19;;;;;;;5.38;0.80;;;6.70;99.90;;;;;;6278102;22;20050;-85
2023/12/22 00:14:49;;;;;;;6.75;0.70;;;6.70;99.90;;;;;;6251587;22;20051;-85
2023/12/22 00:17:19;;;;;;;8.07;1.00;;;6.70;99.90;;;;;;6251790;22;20051;-85
2023/12/22 00:19:47;;;;;;;10.93;1.00;;;6.70;99.90;;;;;;6251667;22;20046;-84
2023/12/22 00:22:14;;;;;;;6.13;0.82;;;6.70;99.90;;;;;;6277042;22;20087;-84
2023/12/22 00:24:44;;;;;;;6.13;0.85;;;6.70;99.90;;;;;;6252012;22;20016;-84
2023/12/22 00:27:13;;;;;;;6.72;0.90;;;6.70;99.90;;;;;;6251459;22;20020;-84
2023/12/22 00:29:40;;;;;;;7.07;1.33;;;6.70;99.90;;;;;;6276503;22;20023;-84
2023/12/22 00:32:09;;;;;;;6.07;0.90;;;6.60;99.90;;;;;;6251219;22;20438;-85
2023/12/22 00:34:36;;;;;;;5.95;0.80;;;6.60;99.90;;;;;;6251965;22;20046;-85
2023/12/22 00:37:04;;;;;;;7.22;0.75;;;6.60;99.90;;;;;;6251638;22;20077;-85
2023/12/22 00:39:32;;;;;;;4.78;0.60;;;6.50;99.90;;;;;;6302746;22;20028;-86
2023/12/22 00:41:59;;;;;;;5.60;1.40;;;6.30;99.90;;;;;;6251198;22;20022;-84
2023/12/22 00:44:29;;;;;;;6.15;0.40;;;6.20;99.90;;;;;;6276261;22;20012;-83
2023/12/22 00:46:56;;;;;;;3.78;0.40;;;6.00;99.90;;;;;;6276747;22;20022;-83
2023/12/22 00:49:23;;;;;;;2.08;0.30;;;5.90;99.90;;;;;;6276150;22;20103;-83
2023/12/22 00:51:50;;;;;;;2.33;0.40;;;5.90;99.90;;;;;;6250772;22;20024;-84
2023/12/22 00:54:17;;;;;;;6.80;0.47;;;5.80;99.90;;;;;;6276258;22;20023;-83
2023/12/22 00:56:44;;;;;;;5.38;1.38;;;5.80;99.90;;;;;;6251200;22;20020;-82
2023/12/22 00:59:11;;;;;;;5.40;0.60;;;5.80;99.90;;;;;;6250705;22;20028;-82
2023/12/22 01:01:40;;;;;;;1.70;0.35;;;5.80;99.90;;;;;;6275723;22;20438;-84
2023/12/22 01:04:08;;;;;;;3.17;0.40;;;5.80;99.90;;;;;;6250888;22;20043;-83
2023/12/22 01:06:38;;;;;;;4.72;0.40;;;5.80;99.90;;;;;;6225720;22;20095;-84
2023/12/22 01:09:06;;;;;;;3.22;0.50;;;5.70;99.90;;;;;;6250741;22;20452;-84
2023/12/22 01:11:34;;;;;;;3.53;0.60;;;5.70;99.90;;;;;;6251520;22;20378;-84
2023/12/22 01:14:01;;;;;;;3.40;0.47;;;5.70;99.90;;;;;;6276160;22;20028;-84
2023/12/22 01:16:28;;;;;;;5.22;0.50;;;5.70;99.90;;;;;;6276143;22;20023;-84
2023/12/22 01:18:55;;;;;;;3.58;0.40;;;5.70;99.90;;;;;;6301634;22;20031;-83
2023/12/22 01:21:22;;;;;;;4.50;0.47;;;5.60;99.90;;;;;;6301521;22;20027;-84
2023/12/22 01:23:49;;;;;;;4.50;0.65;;;5.50;99.90;;;;;;6250408;22;20020;-84
2023/12/22 01:26:17;;;;;;;2.55;0.30;;;5.50;99.90;;;;;;6250223;22;20023;-84
2023/12/22 01:28:44;;;;;;;5.75;0.80;;;5.50;99.90;;;;;;6275610;22;20643;-82
2023/12/22 01:31:11;;;;;;;4.88;0.50;;;5.50;99.90;;;;;;6250450;22;20019;-82
2023/12/22 01:33:38;;;;;;;2.85;0.40;;;5.60;99.90;;;;;;6250056;22;20019;-82
2023/12/22 01:36:05;;;;;;;2.15;0.30;;;5.60;99.90;;;;;;6275731;22;20043;-82
2023/12/22 01:38:32;;;;;;;8.02;1.13;;;5.60;99.90;;;;;;6249948;22;20024;-83
2023/12/22 01:40:59;;;;;;;3.63;0.32;;;5.60;99.90;;;;;;6275487;22;20015;-82
2023/12/22 01:43:26;;;;;;;3.90;0.40;;;5.70;99.90;;;;;;6249714;22;20048;-84
2023/12/22 01:45:59;;;;;;;4.43;0.30;;;5.70;99.90;;;;;;6275544;22;20043;-84
2023/12/22 01:48:27;;;;;;;4.32;0.40;;;5.80;99.90;;;;;;6275162;22;20121;-83
2023/12/22 01:50:56;;;;;;;2.63;0.63;;;5.70;99.90;;;;;;6275132;22;20015;-83
2023/12/22 01:53:25;;;;;;;3.60;0.40;;;5.80;99.90;;;;;;6275264;22;20023;-83
2023/12/22 01:55:54;;;;;;;3.28;0.22;;;5.80;99.90;;;;;;6277147;22;20311;-84
2023/12/22 01:58:23;;;;;;;6.30;1.00;;;5.80;99.90;;;;;;6275033;22;20069;-83
2023/12/22 02:00:53;;;;;;;4.93;0.50;;;5.80;99.90;;;;;;6300600;22;20093;-82
2023/12/22 02:03:21;;;;;;;4.38;0.47;;;5.70;99.90;;;;;;6300577;22;20035;-83
2023/12/22 02:05:49;;;;;;;3.53;0.50;;;5.70;99.90;;;;;;6275652;22;20051;-83
2023/12/22 02:08:22;;;;;;;3.53;0.40;;;5.80;99.90;;;;;;6250353;22;20019;-83
2023/12/22 02:10:49;;;;;;;3.17;0.40;;;5.80;99.90;;;;;;6276667;22;20016;-83
2023/12/22 02:13:19;;;;;;;4.00;0.68;;;5.80;99.90;;;;;;6275365;22;20027;-82
2023/12/22 02:15:54;;;;;;;5.63;0.45;;;5.90;99.90;;;;;;6249587;22;20024;-83
2023/12/22 02:18:26;;;;;;;3.35;0.60;;;5.90;99.90;;;;;;6275088;22;20438;-83
2023/12/22 02:20:56;;;;;;;3.45;0.40;;;5.80;99.90;;;;;;6275529;22;20023;-84
2023/12/22 02:23:23;;;;;;;3.88;0.63;;;5.80;99.90;;;;;;6300641;22;20046;-82
2023/12/22 02:25:57;;;;;;;4.05;0.60;;;5.90;99.90;;;;;;6249604;22;20023;-82
2023/12/22 02:28:27;;;;;;;3.20;0.68;;;5.90;99.90;;;;;;6274859;22;20130;-82
2023/12/22 02:31:04;;;;;;;7.80;1.30;;;5.90;99.90;;;;;;6274766;22;20022;-82
2023/12/22 02:33:34;;;;;;;7.38;0.60;;;5.90;99.90;;;;;;6275162;22;20088;-83
2023/12/22 02:36:07;;;;;;;8.20;1.08;;;5.90;99.90;;;;;;6275018;22;20019;-83
2023/12/22 02:38:35;;;;;;;7.50;0.77;;;5.90;99.90;;;;;;6276471;22;20020;-83
2023/12/22 02:41:02;;;;;;;9.45;0.70;;;5.90;99.90;;;;;;6249809;22;20023;-82
2023/12/22 02:43:29;;;;;;;6.13;0.70;;;6.00;99.90;;;;;;6275039;22;20016;-83
2023/12/22 02:45:56;;;;;;;3.72;0.40;;;6.00;99.90;;;;;;6274924;22;20023;-82
2023/12/22 02:48:23;;;;;;;5.47;0.73;;;6.10;99.90;;;;;;6275208;22;20023;-83
2023/12/22 02:50:51;;;;;;;7.22;1.02;;;6.00;99.90;;;;;;6249905;22;20051;-83
2023/12/22 02:53:18;;;;;;;9.93;1.15;;;6.10;99.90;;;;;;6274880;22;20020;-84
2023/12/22 02:55:45;;;;;;;10.07;1.63;;;6.00;99.90;;;;;;6224413;22;20078;-84
2023/12/22 02:58:20;;;;;;;5.30;0.88;;;6.00;99.90;;;;;;6275287;22;20717;-84
2023/12/22 03:00:48;;;;;;;11.50;1.15;;;6.00;99.90;;;;;;6275308;22;20019;-84
2023/12/22 03:03:15;;;;;;;4.07;0.68;;;6.00;99.90;;;;;;6275002;22;20012;-84
2023/12/22 03:05:44;;;;;;;7.13;1.45;;;5.90;99.90;;;;;;6274760;22;20042;-84
2023/12/22 03:08:14;;;;;;;9.13;1.42;;;5.90;99.90;;;;;;6275783;22;20066;-84
2023/12/22 03:10:41;;;;;;;6.38;0.70;;;5.90;99.90;;;;;;6250010;22;20090;-82
2023/12/22 03:13:08;;;;;;;5.55;0.90;;;6.00;99.90;;;;;;6249552;22;20024;-82
2023/12/22 03:15:35;;;;;;;6.57;1.05;;;6.00;99.90;;;;;;6249940;22;20023;-84
2023/12/22 03:18:02;;;;;;;11.88;1.65;;;6.10;99.90;;;;;;6224547;22;20020;-81
2023/12/22 03:20:30;;;;;;;6.82;0.73;;;6.10;99.90;;;;;;6274846;22;20070;-83
2023/12/22 03:22:57;;;;;;;7.47;1.10;;;6.10;99.90;;;;;;6249597;22;20015;-85
2023/12/22 03:25:24;;;;;;;10.35;1.05;;;6.20;99.90;;;;;;6278018;22;20019;-85
2023/12/22 03:27:52;;;;;;;6.50;0.60;;;6.00;99.90;;;;;;6278288;22;20020;-86
2023/12/22 03:30:19;;;;;;;6.00;0.80;;;5.70;99.90;;;;;;6252179;22;20477;-86
2023/12/22 03:32:48;;;;;;;8.43;0.60;;;5.60;99.90;;;;;;6252397;22;20047;-87
2023/12/22 03:35:15;;;;;;;4.03;0.40;;;5.40;99.90;;;;;;6252820;22;20022;-89
2023/12/22 03:37:42;;;;;;;3.40;0.40;;;5.20;99.90;;;;;;6252402;22;20023;-91
2023/12/22 03:40:10;;;;;;;1.98;0.28;;;5.00;99.90;;;;;;6252448;22;20106;-91
2023/12/22 03:42:37;;;;;;;4.45;0.43;;;4.90;99.90;;;;;;6277969;22;20074;-90
2023/12/22 03:45:04;;;;;;;1.45;0.20;;;4.80;99.90;;;;;;6252484;22;20030;-90
2023/12/22 03:47:34;;;;;;;4.60;0.30;;;4.80;99.90;;;;;;6277904;22;20019;-91
2023/12/22 03:50:01;;;;;;;3.65;0.30;;;4.80;99.90;;;;;;6277912;22;20468;-89
2023/12/22 03:52:28;;;;;;;3.75;0.40;;;4.80;99.90;;;;;;6252370;22;20354;-90
2023/12/22 03:54:55;;;;;;;6.82;0.47;;;4.80;99.90;;;;;;6278305;22;20024;-90
2023/12/22 03:57:23;;;;;;;4.00;0.30;;;4.80;99.90;;;;;;6252088;22;20019;-90
2023/12/22 03:59:50;;;;;;;2.97;0.30;;;4.90;99.90;;;;;;6277579;22;20031;-91
2023/12/22 04:02:17;;;;;;;1.63;0.13;;;5.00;99.90;;;;;;6277609;22;20043;-90
2023/12/22 04:04:44;;;;;;;5.38;0.40;;;5.00;99.90;;;;;;6252185;22;20012;-90
2023/12/22 04:07:11;;;;;;;3.33;0.40;;;5.00;99.90;;;;;;6277029;22;20406;-88
2023/12/22 04:09:40;;;;;;;4.55;0.30;;;4.90;99.90;;;;;;6252551;22;20077;-88
2023/12/22 04:12:10;;;;;;;4.55;0.40;;;4.90;99.90;;;;;;6252978;22;20035;-87
2023/12/22 04:14:37;;;;;;;4.63;0.30;;;5.00;99.90;;;;;;6252110;22;20030;-86
2023/12/22 04:17:04;;;;;;;3.97;0.38;;;5.00;99.90;;;;;;6251744;22;20031;-86
2023/12/22 04:19:31;;;;;;;6.85;0.57;;;5.00;99.90;;;;;;6251900;22;20047;-85
2023/12/22 04:21:58;;;;;;;8.05;0.68;;;5.00;99.90;;;;;;6277539;22;20397;-86
2023/12/22 04:24:25;;;;;;;7.05;0.40;;;5.10;99.90;;;;;;6252287;22;20011;-86
2023/12/22 04:26:52;;;;;;;4.68;1.10;;;5.10;99.90;;;;;;6277555;22;20086;-85
2023/12/22 04:29:20;;;;;;;6.50;0.85;;;5.10;99.90;;;;;;6277028;22;20027;-86
2023/12/22 04:31:47;;;;;;;4.65;0.85;;;5.20;99.90;;;;;;6277827;22;20457;-86
2023/12/22 04:34:15;;;;;;;5.60;0.40;;;5.20;99.90;;;;;;6251555;22;20077;-86
2023/12/22 04:36:43;;;;;;;7.22;0.77;;;5.30;99.90;;;;;;6277941;22;20103;-86
2023/12/22 04:39:10;;;;;;;6.13;0.70;;;5.30;99.90;;;;;;6251531;22;20027;-86
2023/12/22 04:41:37;;;;;;;5.80;1.00;;;5.40;99.90;;;;;;6276863;22;20023;-86
2023/12/22 04:44:04;;;;;;;6.10;0.60;;;5.40;99.90;;;;;;6251716;22;20015;-86
2023/12/22 04:46:31;;;;;;;9.27;0.73;;;5.50;99.90;;;;;;6277642;22;20026;-85
2023/12/22 04:48:58;;;;;;;8.55;0.70;;;5.50;99.90;;;;;;6276890;22;20027;-85
2023/12/22 04:51:26;;;;;;;8.13;0.80;;;5.60;99.90;;;;;;6277092;22;20047;-86
2023/12/22 04:53:53;;;;;;;10.07;0.68;;;5.60;99.90;;;;;;6276813;22;20019;-86
2023/12/22 04:56:20;;;;;;;10.32;0.85;;;5.60;99.90;;;;;;6251838;22;20098;-86
2023/12/22 04:58:47;;;;;;;7.78;1.08;;;5.70;99.90;;;;;;6302292;22;20023;-86
2023/12/22 05:01:14;;;;;;;18.83;1.17;;;5.70;99.90;;;;;;6276659;22;20027;-86
2023/12/22 05:03:44;;;;;;;4.03;0.55;;;5.80;99.90;;;;;;6251731;22;20020;-86
2023/12/22 05:06:13;;;;;;;11.40;1.02;;;5.80;99.90;;;;;;6251976;22;20041;-87
2023/12/22 05:08:40;;;;;;;5.78;0.85;;;5.90;99.90;;;;;;6276920;22;20020;-86
2023/12/22 05:11:07;;;;;;;6.88;1.05;;;5.80;99.90;;;;;;6277080;22;20087;-86
2023/12/22 05:13:34;;;;;;;4.03;0.75;;;5.90;99.90;;;;;;6251361;22;20046;-86
2023/12/22 05:16:01;;;;;;;4.78;0.70;;;5.90;99.90;;;;;;6251751;22;20389;-86
2023/12/22 05:18:29;;;;;;;7.35;0.60;;;5.90;99.90;;;;;;6226791;22;20016;-86
2023/12/22 05:20:56;;;;;;;6.72;0.60;;;5.90;99.90;;;;;;6251210;22;20327;-86
2023/12/22 05:23:24;;;;;;;3.67;0.73;;;5.90;99.90;;;;;;6276305;22;20343;-84
2023/12/22 05:25:51;;;;;;;6.63;0.70;;;5.90;99.90;;;;;;6276794;22;20402;-84
2023/12/22 05:28:18;;;;;;;5.40;0.70;;;5.90;99.90;;;;;;6251385;22;20020;-85
2023/12/22 05:30:45;;;;;;;3.75;0.50;;;5.90;99.90;;;;;;6247323;22;20024;-85
2023/12/22 05:33:12;;;;;;;6.32;1.02;;;5.90;99.90;;;;;;6250781;22;20078;-85
2023/12/22 05:35:39;;;;;;;5.32;0.70;;;5.90;99.90;;;;;;6251284;22;20027;-85
2023/12/22 05:38:07;;;;;;;6.85;0.45;;;5.90;99.90;;;;;;6276958;22;20023;-85
2023/12/22 05:40:34;;;;;;;6.57;1.23;;;5.80;99.90;;;;;;6251140;22;20458;-86
2023/12/22 05:43:01;;;;;;;5.50;0.65;;;5.80;99.90;;;;;;6250938;22;20019;-87
2023/12/22 05:45:28;;;;;;;3.53;0.80;;;5.90;99.90;;;;;;6301836;22;20090;-84
2023/12/22 05:47:55;;;;;;;11.48;0.82;;;5.90;99.90;;;;;;6250560;22;20468;-84
2023/12/22 05:50:22;;;;;;;6.15;0.80;;;5.90;99.90;;;;;;6276665;22;20031;-85
2023/12/22 05:52:50;;;;;;;3.72;0.40;;;6.00;99.90;;;;;;6251238;22;20058;-85
2023/12/22 05:55:17;;;;;;;4.43;0.63;;;6.00;99.90;;;;;;6251219;22;20047;-85
2023/12/22 05:57:44;;;;;;;9.45;0.70;;;6.00;99.90;;;;;;6276478;22;20043;-86
2023/12/22 06:00:12;;;;;;;6.38;1.38;;;6.00;99.90;;;;;;6250934;22;20024;-86
2023/12/22 06:02:39;;;;;;;10.25;1.38;;;6.00;99.90;;;;;;6250766;22;20111;-85
2023/12/22 06:05:07;;;;;;;5.45;0.60;;;6.10;99.90;;;;;;6250877;22;20396;-86
2023/12/22 06:07:34;;;;;;;3.67;0.88;;;6.10;99.90;;;;;;6276213;22;20020;-85
2023/12/22 06:10:01;;;;;;;10.30;1.05;;;6.10;99.90;;;;;;6251109;22;20078;-85
2023/12/22 06:12:28;;;;;;;8.18;0.82;;;6.10;99.90;;;;;;6250664;22;20016;-86
2023/12/22 06:14:55;;;;;;;5.25;1.27;;;6.10;99.90;;;;;;6250841;22;20107;-86
2023/12/22 06:17:22;;;;;;;6.25;0.80;;;6.10;99.90;;;;;;6276100;22;20015;-85
2023/12/22 06:19:50;;;;;;;11.57;1.38;;;6.20;99.90;;;;;;6250999;22;20027;-84
2023/12/22 06:22:17;;;;;;;6.40;0.95;;;6.20;99.90;;;;;;6275995;22;20521;-85
2023/12/22 06:24:44;;;;;;;8.02;1.02;;;6.30;99.90;;;;;;6250753;22;20106;-85
2023/12/22 06:27:15;;;;;;;7.32;1.10;;;6.30;99.90;;;;;;6251208;22;20020;-84
2023/12/22 06:29:44;;;;;;;12.35;1.92;;;6.40;99.90;;;;;;6251129;22;20015;-86
2023/12/22 06:32:12;;;;;;;9.02;1.27;;;6.40;99.90;;;;;;6249389;22;20069;-86
2023/12/22 06:34:39;;;;;;;11.10;1.58;;;6.50;99.90;;;;;;6250495;22;20026;-86
2023/12/22 06:37:07;;;;;;;10.57;1.15;;;6.60;99.90;;;;;;6250341;22;20047;-86
2023/12/22 06:39:34;;;;;;;7.50;1.02;;;6.60;99.90;;;;;;6251115;22;20023;-85
2023/12/22 06:42:03;;;;;;;10.90;1.13;;;6.70;99.90;;;;;;6250573;22;20020;-85
2023/12/22 06:44:31;;;;;;;10.70;1.70;;;6.80;99.90;;;;;;6250736;22;20024;-85
2023/12/22 06:46:58;;;;;;;6.57;1.10;;;6.90;99.90;;;;;;6276483;22;20046;-86
2023/12/22 06:49:25;;;;;;;9.73;1.55;;;6.90;99.90;;;;;;6250607;22;20026;-86
2023/12/22 06:51:53;;;;;;;10.15;1.50;;;7.00;99.90;;;;;;6251058;22;20389;-85
2023/12/22 06:54:20;;;;;;;11.95;1.17;;;7.10;99.90;;;;;;6250239;22;20346;-86
2023/12/22 06:56:47;;;;;;;9.65;1.40;;;7.20;99.90;;;;;;6300790;22;20031;-85
2023/12/22 06:59:20;;;;;;;9.57;1.17;;;7.20;99.90;;;;;;6252627;22;20024;-86
2023/12/22 07:01:49;;;;;;;9.95;1.20;;;7.30;99.90;;;;;;6253426;22;20105;-87
2023/12/22 07:05:07;;;;;;;12.90;1.67;;;7.30;99.90;;;;;;6277970;22;20050;-86
2023/12/22 07:07:34;;;;;;;10.93;1.65;;;7.40;99.90;;;;;;6277816;22;20102;-87
2023/12/22 07:10:03;;;;;;;7.35;1.65;;;7.40;99.90;;;;;;6303762;22;20062;-85
2023/12/22 07:12:30;;;;;;;3.70;0.88;;;7.40;99.90;;;;;;6278516;22;20522;-86
2023/12/22 07:14:59;;;;;;;10.25;1.55;;;7.50;99.90;;;;;;6278358;22;20023;-86
2023/12/22 07:17:26;;;;;;;9.50;0.98;;;7.50;99.90;;;;;;6252713;22;20023;-86
2023/12/22 07:19:57;;;;;;;9.48;1.58;;;7.60;99.90;;;;;;6252763;22;20028;-87
2023/12/22 07:22:24;;;;;;;9.83;1.37;;;7.60;99.90;;;;;;6253552;22;20019;-86
2023/12/22 07:24:52;;;;;;;8.45;1.02;;;7.60;99.90;;;;;;6252084;22;20020;-86
2023/12/22 07:27:19;;;;;;;8.68;1.67;;;7.60;99.90;;;;;;6252472;22;20026;-86
2023/12/22 07:29:47;;;;;;;16.73;2.50;;;7.60;99.90;;;;;;6277769;22;20018;-87
2023/12/22 07:32:14;;;;;;;11.02;1.73;;;7.60;99.90;;;;;;6251999;22;20027;-87
2023/12/22 07:34:42;;;;;;;17.70;2.20;;;7.70;99.90;;;;;;6252387;22;20438;-87
2023/12/22 07:37:09;;;;;;;10.75;1.40;;;7.70;99.90;;;;;;6251863;22;20019;-87
2023/12/22 07:39:36;;;;;;;9.23;1.75;;;7.70;99.90;;;;;;6277518;22;20026;-87
2023/12/22 07:42:04;;;;;;;16.48;3.33;;;7.70;99.90;;;;;;6252544;22;20023;-87
2023/12/22 07:44:32;;;;;;;12.80;2.08;;;7.80;99.90;;;;;;6277464;22;20022;-85
2023/12/22 07:47:00;;;;;;;10.68;1.77;;;7.80;99.90;;;;;;6277886;22;20024;-87
2023/12/22 07:49:30;;;;;;;17.00;2.03;;;7.80;99.90;;;;;;6276949;22;20016;-88
2023/12/22 07:51:59;;;;;;;12.52;2.88;;;7.90;99.90;;;;;;6252470;22;20023;-81
2023/12/22 07:54:45;;;;;;;14.25;2.13;;;7.90;99.90;;;;;;6276803;22;20070;-90
2023/12/22 07:57:14;;;;;;;13.00;2.20;;;8.00;99.90;;;;;;6251298;22;20016;-80
2023/12/22 07:59:43;;;;;;;13.50;2.85;;;8.00;99.90;;;;;;6276703;22;20034;-87
2023/12/22 08:02:11;;;;;;;16.45;2.15;;;8.00;99.90;;;;;;6276400;22;20016;-87
2023/12/22 08:04:38;;;;;;;14.15;2.50;;;8.00;99.90;;;;;;6252391;22;20020;-87
2023/12/22 08:07:06;;;;;;;17.92;3.30;;;8.00;99.90;;;;;;6252322;22;20353;-89
2023/12/22 08:09:33;;;;;;;11.23;1.63;;;8.10;99.90;;;;;;6251510;22;20020;-89
2023/12/22 08:12:00;;;;;;;11.88;2.60;;;8.00;99.90;;;;;;6277715;22;20015;-89
2023/12/22 08:14:28;;;;;;;29.23;3.38;;;8.00;99.90;;;;;;6277383;22;20024;-89
2023/12/22 08:16:55;;;;;;;12.20;2.08;;;8.10;99.90;;;;;;6252253;22;20027;-89
2023/12/22 08:19:22;;;;;;;14.32;2.42;;;8.10;99.90;;;;;;6252096;22;20081;-89
2023/12/22 08:21:56;;;;;;;18.73;3.53;;;8.00;99.90;;;;;;6254597;22;20031;-88
2023/12/22 08:24:24;;;;;;;15.48;3.35;;;7.90;99.90;;;;;;6251448;22;20019;-82
2023/12/22 08:26:52;;;;;;;10.02;1.67;;;7.70;99.90;;;;;;6251394;22;20026;-84
2023/12/22 08:29:19;;;;;;;8.43;1.35;;;7.60;99.90;;;;;;6251342;22;20027;-82
2023/12/22 08:31:47;;;;;;;6.70;1.00;;;7.50;99.90;;;;;;6249984;22;20102;-82
2023/12/22 08:34:15;;;;;;;8.52;2.08;;;7.40;99.90;;;;;;6275723;22;20024;-81
2023/12/22 08:36:43;;;;;;;9.35;1.10;;;7.40;99.90;;;;;;6250867;22;20023;-81
2023/12/22 08:39:12;;;;;;;8.25;2.17;;;7.30;99.90;;;;;;6277765;22;20042;-82
2023/12/22 08:41:39;;;;;;;7.45;1.27;;;7.30;99.90;;;;;;6275883;22;20030;-80
2023/12/22 08:44:07;;;;;;;8.25;1.75;;;7.30;99.90;;;;;;6301569;22;20039;-82
2023/12/22 08:46:35;;;;;;;8.40;1.25;;;7.30;99.90;;;;;;6300837;22;20089;-81
2023/12/22 08:49:04;;;;;;;10.35;2.15;;;7.30;99.90;;;;;;6277272;22;20012;-81
2023/12/22 08:51:33;;;;;;;7.97;1.70;;;7.30;99.90;;;;;;6250340;22;20098;-82
2023/12/22 08:54:01;;;;;;;10.20;2.00;;;7.30;99.90;;;;;;6301340;22;20042;-83
2023/12/22 08:56:28;;;;;;;13.13;2.33;;;7.40;99.90;;;;;;6225389;22;20357;-82
2023/12/22 08:58:55;;;;;;;17.10;2.75;;;7.40;99.90;;;;;;6275600;22;20095;-83
2023/12/22 09:01:22;;;;;;;14.02;2.65;;;7.50;99.90;;;;;;6275586;22;20430;-82
2023/12/22 09:03:50;;;;;;;16.00;2.33;;;7.50;99.90;;;;;;6249983;22;20136;-82
2023/12/22 09:06:19;;;;;;;12.63;2.83;;;7.60;99.90;;;;;;6275525;22;20020;-83
2023/12/22 09:08:49;;;;;;;12.68;2.45;;;7.70;99.90;;;;;;6250080;22;20102;-82
2023/12/22 09:11:19;;;;;;;10.70;1.70;;;7.70;99.90;;;;;;6275776;22;20024;-84
2023/12/22 09:13:47;;;;;;;10.80;1.98;;;7.70;99.90;;;;;;6250130;22;20047;-83
2023/12/22 09:16:20;;;;;;;11.18;2.08;;;7.70;99.90;;;;;;6275368;22;20468;-83
2023/12/22 09:18:47;;;;;;;10.25;2.35;;;7.80;99.90;;;;;;6251586;22;20446;-83
2023/12/22 09:21:17;;;;;;;12.43;2.35;;;7.80;99.90;;;;;;6274678;22;20142;-83
2023/12/22 09:23:47;;;;;;;8.90;1.77;;;7.80;99.90;;;;;;6276814;22;20624;-83
2023/12/22 09:26:15;;;;;;;7.18;1.73;;;7.90;99.90;;;;;;6277354;22;20023;-82
2023/12/22 09:28:45;;;;;;;9.75;1.90;;;7.90;99.90;;;;;;6276379;22;20016;-83
2023/12/22 09:31:13;;;;;;;9.32;1.50;;;7.90;99.90;;;;;;6274943;22;20020;-83
2023/12/22 09:33:41;;;;;;;7.40;1.27;;;7.90;99.90;;;;;;6225125;22;20030;-82
2023/12/22 09:36:10;;;;;;;10.02;1.27;;;8.00;99.90;;;;;;6275172;22;20080;-84
2023/12/22 09:38:41;;;;;;;11.38;1.65;;;8.00;99.90;;;;;;6250169;22;20062;-84
2023/12/22 09:41:10;;;;;;;9.93;1.50;;;8.10;99.90;;;;;;6300908;22;20070;-84
2023/12/22 09:43:38;;;;;;;10.70;1.98;;;8.10;99.90;;;;;;6276658;22;20047;-83
2023/12/22 09:46:07;;;;;;;13.20;1.95;;;8.20;99.90;;;;;;6249613;22;20027;-83
2023/12/22 09:48:39;;;;;;;8.35;2.03;;;8.30;99.90;;;;;;6249857;22;20458;-83
2023/12/22 09:51:07;;;;;;;7.25;1.90;;;8.30;99.90;;;;;;6276107;22;20020;-84
2023/12/22 09:53:37;;;;;;;9.57;1.00;;;8.40;99.90;;;;;;6250234;22;20456;-86
2023/12/22 09:56:05;;;;;;;4.45;0.93;;;8.30;99.90;;;;;;6275917;22;20019;-90
2023/12/22 09:58:35;;;;;;;4.50;0.90;;;8.30;99.90;;;;;;6251129;22;20020;-90
2023/12/22 10:01:05;;;;;;;7.32;0.75;;;8.20;99.90;;;;;;6276632;22;20026;-86
2023/12/22 10:03:37;;;;;;;4.43;0.80;;;8.10;99.90;;;;;;6275909;22;20042;-86
2023/12/22 10:06:05;;;;;;;2.38;0.43;;;8.10;99.90;;;;;;6301644;22;20024;-87
2023/12/22 10:08:33;;;;;;;3.30;0.30;;;8.00;99.90;;;;;;6300725;22;20434;-81
2023/12/22 10:11:01;;;;;;;3.10;0.63;;;8.00;99.90;;;;;;6275463;22;20016;-81
2023/12/22 10:13:28;;;;;;;2.40;0.40;;;7.90;99.90;;;;;;6249657;22;20023;-79
2023/12/22 10:15:59;;;;;;;3.20;0.30;;;7.90;99.90;;;;;;6275343;22;20024;-79
2023/12/22 10:18:26;;;;;;;3.47;0.30;;;7.90;99.90;;;;;;6274743;22;20311;-78
2023/12/22 10:20:54;;;;;;;2.15;0.22;;;7.80;99.90;;;;;;6276180;22;20016;-78
2023/12/22 10:23:21;;;;;;;1.25;0.35;;;7.80;99.90;;;;;;6249428;22;20026;-79
2023/12/22 10:25:49;;;;;;;2.40;0.32;;;7.80;99.90;;;;;;6249734;22;20023;-80
2023/12/22 10:28:21;;;;;;;2.08;0.32;;;7.80;99.90;;;;;;6249756;22;20043;-79
2023/12/22 10:30:49;;;;;;;3.13;0.45;;;7.80;99.90;;;;;;6250584;22;20098;-80
2023/12/22 10:33:19;;;;;;;3.40;0.30;;;7.90;99.90;;;;;;6275677;22;20047;-83
2023/12/22 10:35:49;;;;;;;4.65;0.60;;;8.00;99.90;;;;;;6279190;22;20345;-81
2023/12/22 10:38:19;;;;;;;4.03;0.80;;;8.10;99.90;;;;;;6285131;22;20022;-84
2023/12/22 10:40:47;;;;;;;4.03;0.63;;;8.20;99.90;;;;;;6278744;22;20326;-86
2023/12/22 10:43:15;;;;;;;4.28;0.88;;;8.30;99.90;;;;;;6277581;22;20033;-86
2023/12/22 10:45:45;;;;;;;3.90;0.73;;;8.30;99.90;;;;;;6276630;22;20071;-86
2023/12/22 10:48:14;;;;;;;8.02;0.90;;;8.50;99.90;;;;;;6251960;22;20043;-87
2023/12/22 10:50:43;;;;;;;3.03;1.00;;;8.50;99.90;;;;;;6225637;22;20020;-88
2023/12/22 10:53:14;;;;;;;7.20;1.17;;;8.60;99.90;;;;;;6275935;22;20016;-88
2023/12/22 10:55:50;;;;;;;8.38;1.67;;;8.70;99.90;;;;;;6301876;22;20020;-88
2023/12/22 10:58:19;;;;;;;7.50;1.08;;;8.60;99.90;;;;;;6275665;22;20031;-85
2023/12/22 11:00:51;;;;;;;4.97;0.70;;;8.60;99.90;;;;;;6250399;22;20469;-89
2023/12/22 11:03:21;;;;;;;;;;;8.60;99.90;;;;;;6301467;22;20070;-85
2023/12/22 11:05:50;;;;;;;3.95;1.00;;;8.60;99.90;;;;;;6300765;22;19962;-88
2023/12/22 11:08:20;;;;;;;3.88;1.15;;;8.60;99.90;;;;;;6275939;22;20504;-87
2023/12/22 11:10:56;;;;;;;5.38;0.98;;;8.60;99.90;;;;;;6275684;22;20341;-90
2023/12/22 11:13:23;;;;;;;7.30;0.85;;;8.60;99.90;;;;;;6302019;22;20023;-87
2023/12/22 11:15:53;;;;;;;7.10;1.20;;;8.70;99.90;;;;;;6250681;22;20454;-87
2023/12/22 11:18:21;;;;;;;10.70;1.50;;;8.60;99.90;;;;;;6275341;22;20019;-87
2023/12/22 11:20:50;;;;;;;6.22;0.80;;;8.60;99.90;;;;;;6224780;22;20026;-87
2023/12/22 11:23:18;;;;;;;3.58;0.63;;;8.70;99.90;;;;;;6250314;22;20067;-88
2023/12/22 11:25:50;;;;;;;5.10;1.35;;;8.70;99.90;;;;;;6250395;22;20481;-78
2023/12/22 11:28:19;;;;;;;4.55;1.05;;;8.70;99.90;;;;;;6274557;22;20023;-78
2023/12/22 11:30:52;;;;;;;5.93;1.50;;;8.80;99.90;;;;;;6249275;22;20057;-77
2023/12/22 11:33:27;;;;;;;6.53;1.73;;;8.80;99.90;;;;;;6275675;22;20016;-78
2023/12/22 11:35:56;;;;;;;5.78;1.15;;;8.80;99.90;;;;;;6274009;22;20028;-78
2023/12/22 11:38:23;;;;;;;7.43;1.10;;;8.80;99.90;;;;;;6274505;22;20054;-79
2023/12/22 11:40:52;;;;;;;3.97;1.00;;;8.90;99.90;;;;;;6274295;22;20024;-78
2023/12/22 11:43:28;;;;;;;3.95;1.00;;;8.90;99.90;;;;;;6198907;22;20027;-80
2023/12/22 11:45:56;;;;;;;5.65;0.95;;;8.90;99.90;;;;;;6251858;22;20020;-78
2023/12/22 11:48:23;;;;;;;7.13;1.27;;;9.00;99.90;;;;;;6250708;22;20020;-79
2023/12/22 11:50:51;;;;;;;4.97;1.15;;;9.00;99.90;;;;;;6251243;22;20026;-84
2023/12/22 11:53:23;;;;;;;4.88;1.00;;;9.00;99.90;;;;;;6277078;22;20019;-83
2023/12/22 11:56:09;;;;;;;9.23;1.53;;;9.00;99.90;;;;;;6251465;22;20030;-84
2023/12/22 11:58:37;;;;;;;5.53;0.98;;;9.00;99.90;;;;;;6302748;22;20028;-92
2023/12/22 12:01:10;;;;;;;5.18;0.90;;;9.00;99.90;;;;;;6304164;22;20082;-94
2023/12/22 12:03:42;;;;;;;5.82;0.60;;;9.00;99.90;;;;;;6311901;22;20019;-94
2023/12/22 12:06:22;;;;;;;7.40;1.10;;;8.90;99.90;;;;;;6290897;22;20076;-94
2023/12/22 12:08:50;;;;;;;7.97;1.00;;;9.00;99.90;;;;;;6283128;22;20023;-92
2023/12/22 12:11:21;;;;;;;5.13;1.10;;;8.90;99.90;;;;;;6232224;22;20030;-91
2023/12/22 12:13:50;;;;;;;2.85;0.82;;;9.00;99.90;;;;;;6296010;22;20016;-89
2023/12/22 12:16:21;;;;;;;3.78;1.05;;;8.90;99.90;;;;;;6303524;22;20008;-92
2023/12/22 12:18:52;;;;;;;5.70;1.90;;;8.90;99.90;;;;;;6271286;22;20043;-92
2023/12/22 12:21:20;;;;;;;5.30;0.95;;;8.90;99.90;;;;;;6300437;22;20006;-94
2023/12/22 12:23:48;;;;;;;7.93;1.00;;;8.90;99.90;;;;;;6278535;22;20016;-92
2023/12/22 12:26:17;;;;;;;7.40;1.02;;;8.90;99.90;;;;;;6278198;22;20020;-93
2023/12/22 12:28:47;;;;;;;8.60;1.00;;;9.00;99.90;;;;;;6303335;22;20016;-93
2023/12/22 12:31:14;;;;;;;6.53;0.93;;;9.00;99.90;;;;;;6277827;22;20054;-94
2023/12/22 12:33:44;;;;;;;7.90;1.42;;;9.00;99.90;;;;;;6278280;22;20102;-94
2023/12/22 12:36:12;;;;;;;7.70;0.90;;;9.00;99.90;;;;;;6253249;22;20030;-94
2023/12/22 12:38:58;;;;;;;5.25;1.10;;;9.00;99.90;;;;;;6277848;22;20020;-93
2023/12/22 12:41:39;;;;;;;3.88;0.77;;;9.00;99.90;;;;;;6277927;22;20027;-93
2023/12/22 12:44:08;;;;;;;8.20;0.70;;;9.00;99.90;;;;;;6277755;22;20088;-92
2023/12/22 12:46:36;;;;;;;5.03;1.17;;;9.00;99.90;;;;;;6277565;22;20383;-94
2023/12/22 12:49:12;;;;;;;4.13;0.90;;;9.00;99.90;;;;;;6277927;22;20024;-95
2023/12/22 12:51:44;;;;;;;5.45;0.90;;;9.00;99.90;;;;;;6227735;22;20015;-93
2023/12/22 12:54:12;;;;;;;7.25;1.33;;;9.10;99.90;;;;;;6278785;22;20389;-90
2023/12/22 12:56:44;;;;;;;7.10;1.33;;;9.10;99.90;;;;;;6276901;22;20012;-88
2023/12/22 12:59:18;;;;;;;3.95;0.68;;;9.10;99.90;;;;;;6252025;22;20506;-91
2023/12/22 13:01:49;;;;;;;4.90;0.70;;;9.20;99.90;;;;;;6276889;22;20541;-91
2023/12/22 13:04:19;;;;;;;5.65;0.95;;;9.20;99.90;;;;;;6251642;22;20070;-88